Time;durP1;ratioP1;P1;durP2;ratioP2;P2;SDS_P1;SDS_P2;PMS_P1;PMS_P2;Temp;Humidity;BMP_temperature;BMP_pressure;BME280_temperature;BME280_humidity;BME280_pressure;Samples;Min_cycle;Max_cycle;Signal;HPM_P1;HPM_P2
2021/01/09 00:02:02;;;;;;;1999.90;999.90;;;;;;;;;;5016168;28;20403;-87
2021/01/09 00:04:27;;;;;;;1999.90;999.90;;;;;;;;;;5016591;28;20065;-86
2021/01/09 00:06:53;;;;;;;1999.90;999.90;;;;;;;;;;5020597;28;20096;-87
2021/01/09 00:09:18;;;;;;;1999.90;999.90;;;;;;;;;;5021628;28;20032;-86
2021/01/09 00:11:44;;;;;;;1999.90;999.90;;;;;;;;;;5014967;28;20034;-85
2021/01/09 00:14:10;;;;;;;1999.90;999.90;;;;;;;;;;5019084;28;20013;-85
2021/01/09 00:16:36;;;;;;;1999.90;999.90;;;;;;;;;;5016830;28;20045;-87
2021/01/09 00:19:02;;;;;;;1999.90;999.90;;;;;;;;;;5018232;28;20025;-86
2021/01/09 00:21:35;;;;;;;1999.90;999.90;;;;;;;;;;5020144;28;20099;-85
2021/01/09 00:24:00;;;;;;;1999.90;999.90;;;;;;;;;;5017106;28;20049;-86
2021/01/09 00:26:27;;;;;;;1999.90;999.90;;;;;;;;;;5021052;28;20393;-85
2021/01/09 00:28:53;;;;;;;1999.90;999.90;;;;;;;;;;5018418;28;20493;-86
2021/01/09 00:31:18;;;;;;;1999.90;999.90;;;;;;;;;;5019426;28;20018;-86
2021/01/09 00:33:44;;;;;;;1999.90;999.90;;;;;;;;;;5018362;28;20029;-86
2021/01/09 00:36:09;;;;;;;1999.90;999.90;;;;;;;;;;5014373;28;20076;-86
2021/01/09 00:38:34;;;;;;;1999.90;999.90;;;;;;;;;;5020280;28;20092;-85
2021/01/09 00:41:00;;;;;;;1999.90;999.90;;;;;;;;;;5019400;28;20022;-87
2021/01/09 00:43:25;;;;;;;1999.90;999.90;;;;;;;;;;5016198;28;20075;-87
2021/01/09 00:45:51;;;;;;;1999.90;999.90;;;;;;;;;;5018531;28;20054;-86
2021/01/09 00:48:16;;;;;;;1999.90;999.90;;;;;;;;;;5021082;28;20068;-87
2021/01/09 00:50:44;;;;;;;1999.90;999.90;;;;;;;;;;5017786;28;20069;-87
2021/01/09 00:53:09;;;;;;;1999.90;999.90;;;;;;;;;;5016866;28;20048;-85
2021/01/09 00:55:35;;;;;;;1999.90;999.90;;;;;;;;;;5020014;28;20471;-85
2021/01/09 00:58:00;;;;;;;1999.90;999.90;;;;;;;;;;5019988;28;21604;-81
2021/01/09 01:00:26;;;;;;;1999.90;999.90;;;;;;;;;;5020021;28;20079;-83
2021/01/09 01:02:51;;;;;;;1999.90;999.90;;;;;;;;;;5016315;28;20033;-84
2021/01/09 01:05:17;;;;;;;1999.90;999.90;;;;;;;;;;5019954;28;20042;-84
2021/01/09 01:07:42;;;;;;;1999.90;999.90;;;;;;;;;;5014525;28;20037;-84
2021/01/09 01:10:08;;;;;;;1999.90;999.90;;;;;;;;;;5019010;28;20411;-84
2021/01/09 01:12:34;;;;;;;1999.90;999.90;;;;;;;;;;5023940;28;20068;-84
2021/01/09 01:14:59;;;;;;;1999.90;999.90;;;;;;;;;;5017951;28;20482;-85
2021/01/09 01:17:25;;;;;;;1999.90;999.90;;;;;;;;;;5016496;28;20022;-86
2021/01/09 01:19:50;;;;;;;1999.90;999.90;;;;;;;;;;5022214;28;20425;-87
2021/01/09 01:22:16;;;;;;;1999.90;999.90;;;;;;;;;;5015053;28;20092;-87
2021/01/09 01:24:41;;;;;;;1999.90;999.90;;;;;;;;;;5014013;28;20034;-86
2021/01/09 01:27:06;;;;;;;1999.90;999.90;;;;;;;;;;5023233;28;20041;-87
2021/01/09 01:29:32;;;;;;;1999.90;999.90;;;;;;;;;;5021253;28;20017;-86
2021/01/09 01:31:57;;;;;;;1999.90;999.90;;;;;;;;;;5025445;28;20112;-87
2021/01/09 01:34:23;;;;;;;1999.90;999.90;;;;;;;;;;5016751;28;20409;-86
2021/01/09 01:36:48;;;;;;;1999.90;999.90;;;;;;;;;;5012338;28;20029;-86
2021/01/09 01:39:14;;;;;;;1999.90;999.90;;;;;;;;;;5016013;28;20080;-87
2021/01/09 01:41:39;;;;;;;1999.90;999.90;;;;;;;;;;5020992;28;20393;-86
2021/01/09 01:44:05;;;;;;;1999.90;999.90;;;;;;;;;;5015308;28;20061;-87
2021/01/09 01:46:30;;;;;;;1999.90;999.90;;;;;;;;;;5017000;28;20025;-87
2021/01/09 01:48:56;;;;;;;1999.90;999.90;;;;;;;;;;5011662;28;20034;-86
2021/01/09 01:51:21;;;;;;;1999.90;999.90;;;;;;;;;;5013830;28;20029;-87
2021/01/09 01:53:47;;;;;;;1999.90;999.90;;;;;;;;;;5019116;28;20021;-87
2021/01/09 01:56:12;;;;;;;1999.90;999.90;;;;;;;;;;5015911;28;20037;-86
2021/01/09 01:58:38;;;;;;;1999.90;999.90;;;;;;;;;;5017589;28;20390;-86
2021/01/09 02:01:03;;;;;;;1999.90;999.90;;;;;;;;;;5022207;28;20026;-87
2021/01/09 02:03:29;;;;;;;1999.90;999.90;;;;;;;;;;5018061;28;20500;-87
2021/01/09 02:06:03;;;;;;;1999.90;999.90;;;;;;;;;;5013490;28;20138;-86
2021/01/09 02:08:35;;;;;;;1999.90;999.90;;;;;;;;;;5017442;28;20048;-86
2021/01/09 02:11:03;;;;;;;1999.90;999.90;;;;;;;;;;5019621;28;20029;-86
2021/01/09 02:13:48;;;;;;;1999.90;999.90;;;;;;;;;;5026349;28;20017;-86
2021/01/09 02:16:14;;;;;;;1999.90;999.90;;;;;;;;;;5016528;28;20025;-87
2021/01/09 02:18:41;;;;;;;1999.90;999.90;;;;;;;;;;5024024;28;20480;-87
2021/01/09 02:21:15;;;;;;;1999.90;999.90;;;;;;;;;;5021055;28;20076;-86
2021/01/09 02:23:40;;;;;;;1999.90;999.90;;;;;;;;;;5022588;28;20060;-86
2021/01/09 02:26:06;;;;;;;1999.90;999.90;;;;;;;;;;5013034;28;20470;-87
2021/01/09 02:28:31;;;;;;;1999.90;999.90;;;;;;;;;;5016362;28;20493;-85
2021/01/09 02:30:59;;;;;;;1999.90;999.90;;;;;;;;;;5020009;28;20101;-86
2021/01/09 02:33:25;;;;;;;1999.90;999.90;;;;;;;;;;5016333;28;20048;-86
2021/01/09 02:35:50;;;;;;;1999.90;999.90;;;;;;;;;;5017734;28;20521;-85
2021/01/09 02:38:16;;;;;;;1999.90;999.90;;;;;;;;;;5040714;28;20030;-87
2021/01/09 02:40:43;;;;;;;1999.90;999.90;;;;;;;;;;5017943;28;20041;-86
2021/01/09 02:43:14;;;;;;;1999.90;999.90;;;;;;;;;;5030499;28;20030;-87
2021/01/09 02:45:39;;;;;;;1999.90;999.90;;;;;;;;;;5035309;28;20398;-87
2021/01/09 02:48:05;;;;;;;1999.90;999.90;;;;;;;;;;5034021;28;20021;-87
2021/01/09 02:50:31;;;;;;;1999.90;999.90;;;;;;;;;;5056537;28;20037;-86
2021/01/09 02:52:56;;;;;;;1999.90;999.90;;;;;;;;;;5052596;28;20014;-87
2021/01/09 02:55:22;;;;;;;1999.90;999.90;;;;;;;;;;5041102;28;20038;-87
2021/01/09 02:57:47;;;;;;;1999.90;999.90;;;;;;;;;;5041034;28;20029;-86
2021/01/09 03:00:13;;;;;;;1999.90;999.90;;;;;;;;;;5051479;28;20030;-86
2021/01/09 03:02:38;;;;;;;1999.90;999.90;;;;;;;;;;5045268;28;20030;-87
2021/01/09 03:05:04;;;;;;;1999.90;999.90;;;;;;;;;;5042621;28;20042;-87
2021/01/09 03:07:29;;;;;;;1999.90;999.90;;;;;;;;;;5041324;28;20021;-86
2021/01/09 03:09:55;;;;;;;1999.90;999.90;;;;;;;;;;5039030;28;20093;-86
2021/01/09 03:12:20;;;;;;;1999.90;999.90;;;;;;;;;;5023781;28;20022;-86
2021/01/09 03:14:45;;;;;;;1999.90;999.90;;;;;;;;;;5023024;28;20129;-87
2021/01/09 03:17:11;;;;;;;1999.90;999.90;;;;;;;;;;5022308;28;20025;-87
2021/01/09 03:19:36;;;;;;;1999.90;999.90;;;;;;;;;;5021438;28;20044;-86
2021/01/09 03:22:02;;;;;;;1999.90;999.90;;;;;;;;;;5019646;28;20064;-87
2021/01/09 03:24:27;;;;;;;1999.90;999.90;;;;;;;;;;5021631;28;20034;-87
2021/01/09 03:26:53;;;;;;;1999.90;999.90;;;;;;;;;;5017496;28;20062;-87
2021/01/09 03:29:18;;;;;;;1999.90;999.90;;;;;;;;;;5018035;28;20034;-86
2021/01/09 03:31:43;;;;;;;1999.90;999.90;;;;;;;;;;5019235;28;20477;-86
2021/01/09 03:34:09;;;;;;;1999.90;999.90;;;;;;;;;;5018752;28;20030;-87
2021/01/09 03:36:34;;;;;;;1999.90;999.90;;;;;;;;;;5018107;28;20632;-86
2021/01/09 03:39:00;;;;;;;1999.90;999.90;;;;;;;;;;5022761;28;20033;-87
2021/01/09 03:41:25;;;;;;;1999.90;999.90;;;;;;;;;;5021939;28;20090;-87
2021/01/09 03:43:51;;;;;;;1999.90;999.90;;;;;;;;;;5022781;28;20123;-87
2021/01/09 03:46:16;;;;;;;1999.90;999.90;;;;;;;;;;5019650;28;20117;-87
2021/01/09 03:48:41;;;;;;;1999.90;999.90;;;;;;;;;;5017646;28;20092;-87
2021/01/09 03:51:07;;;;;;;1999.90;999.90;;;;;;;;;;5019937;28;20032;-87
2021/01/09 03:53:32;;;;;;;1999.90;999.90;;;;;;;;;;5022395;28;20044;-88
2021/01/09 03:55:58;;;;;;;1999.90;999.90;;;;;;;;;;5020712;28;20010;-88
2021/01/09 03:58:23;;;;;;;1999.90;999.90;;;;;;;;;;5023419;28;20482;-87
2021/01/09 04:00:49;;;;;;;1999.90;999.90;;;;;;;;;;5019092;28;20722;-87
2021/01/09 04:03:14;;;;;;;1999.90;999.90;;;;;;;;;;5018529;28;20075;-87
2021/01/09 04:05:39;;;;;;;1999.90;999.90;;;;;;;;;;5021089;28;20030;-88
2021/01/09 04:08:05;;;;;;;1999.90;999.90;;;;;;;;;;5020480;28;20379;-88
2021/01/09 04:10:31;;;;;;;1999.90;999.90;;;;;;;;;;5023214;28;20049;-86
2021/01/09 04:12:56;;;;;;;1999.90;999.90;;;;;;;;;;5017716;28;20030;-88
2021/01/09 04:15:22;;;;;;;1999.90;999.90;;;;;;;;;;5018011;28;20184;-88
2021/01/09 04:17:47;;;;;;;1999.90;999.90;;;;;;;;;;5015789;28;20113;-87
2021/01/09 04:20:13;;;;;;;1999.90;999.90;;;;;;;;;;5016434;28;20025;-87
2021/01/09 04:22:38;;;;;;;1999.90;999.90;;;;;;;;;;5019655;28;20058;-87
2021/01/09 04:25:04;;;;;;;1999.90;999.90;;;;;;;;;;5016190;28;20060;-88
2021/01/09 04:27:29;;;;;;;1999.90;999.90;;;;;;;;;;5022166;28;20026;-88
2021/01/09 04:29:55;;;;;;;1999.90;999.90;;;;;;;;;;5018150;28;20461;-88
2021/01/09 04:32:20;;;;;;;1999.90;999.90;;;;;;;;;;5020610;28;20088;-88
2021/01/09 04:34:47;;;;;;;1999.90;999.90;;;;;;;;;;5018804;28;20060;-88
2021/01/09 04:37:13;;;;;;;1999.90;999.90;;;;;;;;;;5018837;28;20029;-87
2021/01/09 04:39:38;;;;;;;1999.90;999.90;;;;;;;;;;5022035;28;20029;-88
2021/01/09 04:42:04;;;;;;;1999.90;999.90;;;;;;;;;;5022053;28;20070;-87
2021/01/09 04:44:29;;;;;;;1999.90;999.90;;;;;;;;;;5020853;28;20383;-88
2021/01/09 04:46:56;;;;;;;1999.90;999.90;;;;;;;;;;5021040;28;20068;-88
2021/01/09 04:49:22;;;;;;;1999.90;999.90;;;;;;;;;;5018648;28;20045;-89
2021/01/09 04:51:48;;;;;;;1999.90;999.90;;;;;;;;;;5019189;28;20030;-88
2021/01/09 04:54:15;;;;;;;1999.90;999.90;;;;;;;;;;5021248;28;20030;-88
2021/01/09 04:56:42;;;;;;;1999.90;999.90;;;;;;;;;;5021676;28;20032;-87
2021/01/09 04:59:07;;;;;;;1999.90;999.90;;;;;;;;;;5018116;28;20022;-88
2021/01/09 05:01:33;;;;;;;1999.90;999.90;;;;;;;;;;5020921;28;20018;-86
2021/01/09 05:03:59;;;;;;;1999.90;999.90;;;;;;;;;;5020863;28;20405;-88
2021/01/09 05:06:24;;;;;;;1999.90;999.90;;;;;;;;;;5014736;28;20025;-88
2021/01/09 05:08:50;;;;;;;1999.90;999.90;;;;;;;;;;5023993;28;20025;-87
2021/01/09 05:11:19;;;;;;;1999.90;999.90;;;;;;;;;;5022529;28;20032;-88
2021/01/09 05:13:45;;;;;;;1999.90;999.90;;;;;;;;;;5021379;28;20482;-88
2021/01/09 05:16:11;;;;;;;1999.90;999.90;;;;;;;;;;5020900;28;20033;-87
2021/01/09 05:18:38;;;;;;;1999.90;999.90;;;;;;;;;;5017586;28;20028;-88
2021/01/09 05:21:05;;;;;;;1999.90;999.90;;;;;;;;;;5023585;28;20021;-89
2021/01/09 05:23:35;;;;;;;1999.90;999.90;;;;;;;;;;5021380;28;20065;-88
2021/01/09 05:26:00;;;;;;;1999.90;999.90;;;;;;;;;;5017663;28;20466;-88
2021/01/09 05:28:26;;;;;;;1999.90;999.90;;;;;;;;;;5017524;28;20037;-86
2021/01/09 05:30:52;;;;;;;1999.90;999.90;;;;;;;;;;5021701;28;20458;-89
2021/01/09 05:33:21;;;;;;;1999.90;999.90;;;;;;;;;;5017998;28;20068;-88
2021/01/09 05:35:49;;;;;;;1999.90;999.90;;;;;;;;;;5017778;28;20558;-87
2021/01/09 05:38:14;;;;;;;1999.90;999.90;;;;;;;;;;5019196;28;20053;-87
2021/01/09 05:40:39;;;;;;;1999.90;999.90;;;;;;;;;;5013291;28;20049;-88
2021/01/09 05:43:09;;;;;;;1999.90;999.90;;;;;;;;;;5001169;28;20030;-88
2021/01/09 05:45:36;;;;;;;1999.90;999.90;;;;;;;;;;5023849;28;20041;-88
2021/01/09 05:48:02;;;;;;;1999.90;999.90;;;;;;;;;;5015850;28;20022;-87
2021/01/09 05:50:27;;;;;;;1999.90;999.90;;;;;;;;;;5020094;28;20049;-88
2021/01/09 05:52:53;;;;;;;1999.90;999.90;;;;;;;;;;5020069;28;20504;-86
2021/01/09 05:55:18;;;;;;;1999.90;999.90;;;;;;;;;;5015455;28;20030;-89
2021/01/09 05:57:44;;;;;;;1999.90;999.90;;;;;;;;;;5018551;28;20037;-88
2021/01/09 06:00:11;;;;;;;1999.90;999.90;;;;;;;;;;5015064;28;20056;-88
2021/01/09 06:02:55;;;;;;;1999.90;999.90;;;;;;;;;;5017692;28;20069;-89
2021/01/09 06:05:22;;;;;;;1999.90;999.90;;;;;;;;;;5021827;28;20076;-88
2021/01/09 06:07:49;;;;;;;1999.90;999.90;;;;;;;;;;5022632;28;20048;-88
2021/01/09 06:10:16;;;;;;;1999.90;999.90;;;;;;;;;;5034473;28;20034;-88
2021/01/09 06:12:52;;;;;;;1999.90;999.90;;;;;;;;;;5024246;28;20026;-88
2021/01/09 06:15:22;;;;;;;1999.90;999.90;;;;;;;;;;5027979;28;20029;-89
2021/01/09 06:17:48;;;;;;;1999.90;999.90;;;;;;;;;;5022595;28;20081;-88
2021/01/09 06:20:14;;;;;;;1999.90;999.90;;;;;;;;;;5022611;28;20026;-87
2021/01/09 06:22:39;;;;;;;1999.90;999.90;;;;;;;;;;5020139;28;20049;-88
2021/01/09 06:25:05;;;;;;;1999.90;999.90;;;;;;;;;;5024610;28;20092;-88
2021/01/09 06:27:34;;;;;;;1999.90;999.90;;;;;;;;;;5021245;28;20033;-88
2021/01/09 06:30:01;;;;;;;1999.90;999.90;;;;;;;;;;5024624;28;20422;-88
2021/01/09 06:32:28;;;;;;;1999.90;999.90;;;;;;;;;;5024353;28;20032;-87
2021/01/09 06:34:54;;;;;;;1999.90;999.90;;;;;;;;;;5021103;28;20580;-88
2021/01/09 06:37:23;;;;;;;1999.90;999.90;;;;;;;;;;5018523;28;20037;-88
2021/01/09 06:39:49;;;;;;;1999.90;999.90;;;;;;;;;;5038021;28;20032;-88
2021/01/09 06:42:16;;;;;;;1999.90;999.90;;;;;;;;;;5036992;28;20036;-87
2021/01/09 06:44:47;;;;;;;1999.90;999.90;;;;;;;;;;5030778;28;20080;-88
2021/01/09 06:47:23;;;;;;;1999.90;999.90;;;;;;;;;;5017876;28;20037;-88
2021/01/09 06:49:49;;;;;;;1999.90;999.90;;;;;;;;;;5017775;28;20045;-87
2021/01/09 06:52:14;;;;;;;1999.90;999.90;;;;;;;;;;5017753;28;20104;-87
2021/01/09 06:54:39;;;;;;;1999.90;999.90;;;;;;;;;;5018195;28;20053;-88
2021/01/09 06:57:05;;;;;;;1999.90;999.90;;;;;;;;;;5026227;28;20031;-87
2021/01/09 06:59:35;;;;;;;1999.90;999.90;;;;;;;;;;5026234;28;20077;-88
2021/01/09 07:02:10;;;;;;;1999.90;999.90;;;;;;;;;;5041941;28;20033;-86
2021/01/09 07:04:51;;;;;;;1999.90;999.90;;;;;;;;;;5043820;28;20104;-87
2021/01/09 07:07:28;;;;;;;1999.90;999.90;;;;;;;;;;5041579;28;20037;-86
2021/01/09 07:09:59;;;;;;;1999.90;999.90;;;;;;;;;;5042630;28;20021;-87
2021/01/09 07:12:28;;;;;;;1999.90;999.90;;;;;;;;;;5038821;28;20026;-87
2021/01/09 07:14:57;;;;;;;1999.90;999.90;;;;;;;;;;5036550;28;20030;-86
2021/01/09 07:17:25;;;;;;;1999.90;999.90;;;;;;;;;;5043799;28;20042;-87
2021/01/09 07:19:51;;;;;;;1999.90;999.90;;;;;;;;;;5041398;28;20021;-86
2021/01/09 07:22:17;;;;;;;1999.90;999.90;;;;;;;;;;5029573;28;20057;-87
2021/01/09 07:24:46;;;;;;;1999.90;999.90;;;;;;;;;;5018102;28;20055;-87
2021/01/09 07:27:12;;;;;;;1999.90;999.90;;;;;;;;;;5027235;28;20036;-87
2021/01/09 07:29:43;;;;;;;1999.90;999.90;;;;;;;;;;5022790;28;20025;-87
2021/01/09 07:32:08;;;;;;;1999.90;999.90;;;;;;;;;;5031382;28;20018;-87
2021/01/09 07:34:35;;;;;;;1999.90;999.90;;;;;;;;;;5026454;28;20489;-88
2021/01/09 07:37:00;;;;;;;1999.90;999.90;;;;;;;;;;5027584;28;20026;-86
2021/01/09 07:39:26;;;;;;;1999.90;999.90;;;;;;;;;;5025140;28;20112;-87
2021/01/09 07:41:52;;;;;;;1999.90;999.90;;;;;;;;;;5024762;28;20030;-86
2021/01/09 07:44:18;;;;;;;1999.90;999.90;;;;;;;;;;5023567;28;20053;-87
2021/01/09 07:46:51;;;;;;;1999.90;999.90;;;;;;;;;;5024060;28;20025;-87
2021/01/09 07:49:24;;;;;;;1999.90;999.90;;;;;;;;;;5025322;28;20041;-87
2021/01/09 07:51:53;;;;;;;1999.90;999.90;;;;;;;;;;5018860;28;20029;-87
2021/01/09 07:54:28;;;;;;;1999.90;999.90;;;;;;;;;;5021822;28;20072;-87
2021/01/09 07:56:53;;;;;;;1999.90;999.90;;;;;;;;;;5015461;28;20469;-86
2021/01/09 07:59:19;;;;;;;1999.90;999.90;;;;;;;;;;5014632;28;20113;-87
2021/01/09 08:01:45;;;;;;;1999.90;999.90;;;;;;;;;;5021554;28;20532;-87
2021/01/09 08:04:11;;;;;;;1999.90;999.90;;;;;;;;;;5023046;28;20029;-87
2021/01/09 08:06:37;;;;;;;1999.90;999.90;;;;;;;;;;5016895;28;20034;-84
2021/01/09 08:09:03;;;;;;;1999.90;999.90;;;;;;;;;;5025443;28;20105;-85
2021/01/09 08:11:28;;;;;;;1999.90;999.90;;;;;;;;;;5018984;28;20026;-87
2021/01/09 08:13:59;;;;;;;1999.90;999.90;;;;;;;;;;5018924;28;20462;-85
2021/01/09 08:16:25;;;;;;;1999.90;999.90;;;;;;;;;;5025393;28;20041;-86
2021/01/09 08:18:51;;;;;;;1999.90;999.90;;;;;;;;;;5023454;28;20022;-86
2021/01/09 08:21:20;;;;;;;1999.90;999.90;;;;;;;;;;5014564;28;20485;-85
2021/01/09 08:23:52;;;;;;;1999.90;999.90;;;;;;;;;;5016552;28;20648;-86
2021/01/09 08:26:17;;;;;;;1999.90;999.90;;;;;;;;;;5016772;28;20493;-86
2021/01/09 08:28:43;;;;;;;1999.90;999.90;;;;;;;;;;5017934;28;20097;-86
2021/01/09 08:31:08;;;;;;;1999.90;999.90;;;;;;;;;;5016811;28;20030;-85
2021/01/09 08:33:34;;;;;;;1999.90;999.90;;;;;;;;;;5016943;28;20024;-86
2021/01/09 08:35:59;;;;;;;1999.90;999.90;;;;;;;;;;5019251;28;20390;-86
2021/01/09 08:38:28;;;;;;;1999.90;999.90;;;;;;;;;;5019857;28;20057;-85
2021/01/09 08:40:57;;;;;;;1999.90;999.90;;;;;;;;;;5021452;28;20037;-85
2021/01/09 08:43:24;;;;;;;1999.90;999.90;;;;;;;;;;5017726;28;20022;-85
2021/01/09 08:45:50;;;;;;;1999.90;999.90;;;;;;;;;;5019662;28;20033;-84
2021/01/09 08:48:20;;;;;;;1999.90;999.90;;;;;;;;;;5017696;28;20504;-84
2021/01/09 08:50:49;;;;;;;1999.90;999.90;;;;;;;;;;5027174;28;20049;-84
2021/01/09 08:53:15;;;;;;;1999.90;999.90;;;;;;;;;;5029757;28;20030;-83
2021/01/09 08:55:41;;;;;;;1999.90;999.90;;;;;;;;;;5027914;28;20040;-83
2021/01/09 08:58:12;;;;;;;1999.90;999.90;;;;;;;;;;5023940;28;20045;-84
2021/01/09 09:00:38;;;;;;;1999.90;999.90;;;;;;;;;;5025309;28;20030;-85
2021/01/09 09:03:05;;;;;;;1999.90;999.90;;;;;;;;;;5019183;28;20067;-85
2021/01/09 09:05:31;;;;;;;1999.90;999.90;;;;;;;;;;5017141;28;20041;-85
2021/01/09 09:07:57;;;;;;;1999.90;999.90;;;;;;;;;;5018200;28;20022;-84
2021/01/09 09:10:28;;;;;;;1999.90;999.90;;;;;;;;;;5023275;28;20044;-84
2021/01/09 09:12:53;;;;;;;1999.90;999.90;;;;;;;;;;5028487;28;20048;-85
2021/01/09 09:15:31;;;;;;;1999.90;999.90;;;;;;;;;;5008085;28;20022;-85
2021/01/09 09:17:56;;;;;;;1999.90;999.90;;;;;;;;;;5019410;28;20049;-84
2021/01/09 09:20:25;;;;;;;1999.90;999.90;;;;;;;;;;5017238;28;20060;-84
2021/01/09 09:22:51;;;;;;;1999.90;999.90;;;;;;;;;;5021731;28;20632;-85
2021/01/09 09:25:23;;;;;;;1999.90;999.90;;;;;;;;;;5026508;28;20479;-82
2021/01/09 09:27:50;;;;;;;1999.90;999.90;;;;;;;;;;5018427;28;20403;-84
2021/01/09 09:30:17;;;;;;;1999.90;999.90;;;;;;;;;;5021308;28;20367;-69
2021/01/09 09:32:44;;;;;;;1999.90;999.90;;;;;;;;;;5022254;28;20022;-84
2021/01/09 09:35:18;;;;;;;1999.90;999.90;;;;;;;;;;5018861;28;20119;-84
2021/01/09 09:37:43;;;;;;;1999.90;999.90;;;;;;;;;;5015775;28;20113;-84
2021/01/09 09:40:19;;;;;;;1999.90;999.90;;;;;;;;;;5016133;28;20109;-85
2021/01/09 09:42:45;;;;;;;1999.90;999.90;;;;;;;;;;5016081;28;20037;-83
2021/01/09 09:45:11;;;;;;;1999.90;999.90;;;;;;;;;;5014227;28;20045;-84
2021/01/09 09:47:36;;;;;;;1999.90;999.90;;;;;;;;;;5018926;28;20034;-86
2021/01/09 09:50:02;;;;;;;1999.90;999.90;;;;;;;;;;5024789;28;20493;-82
2021/01/09 09:52:27;;;;;;;1999.90;999.90;;;;;;;;;;5024152;28;20490;-84
2021/01/09 09:54:59;;;;;;;1999.90;999.90;;;;;;;;;;5015590;28;20045;-85
2021/01/09 09:57:25;;;;;;;1999.90;999.90;;;;;;;;;;5015189;28;20786;-84
2021/01/09 10:00:02;;;;;;;1999.90;999.90;;;;;;;;;;5015996;28;20034;-82
2021/01/09 10:02:51;;;;;;;1999.90;999.90;;;;;;;;;;5017515;28;20038;-84
2021/01/09 10:05:16;;;;;;;1999.90;999.90;;;;;;;;;;5019882;28;20547;-84
2021/01/09 10:07:41;;;;;;;1999.90;999.90;;;;;;;;;;5016084;28;20022;-83
2021/01/09 10:10:14;;;;;;;1999.90;999.90;;;;;;;;;;5013336;28;20056;-86
2021/01/09 10:12:39;;;;;;;1999.90;999.90;;;;;;;;;;5025099;28;20378;-85
2021/01/09 10:15:05;;;;;;;1999.90;999.90;;;;;;;;;;5019945;28;20036;-86
2021/01/09 10:17:31;;;;;;;1999.90;999.90;;;;;;;;;;5016986;28;20033;-86
2021/01/09 10:19:56;;;;;;;1999.90;999.90;;;;;;;;;;5014694;28;20030;-86
2021/01/09 10:22:21;;;;;;;1999.90;999.90;;;;;;;;;;5026309;28;20370;-85
2021/01/09 10:24:47;;;;;;;1999.90;999.90;;;;;;;;;;5024220;28;20030;-85
2021/01/09 10:27:12;;;;;;;1999.90;999.90;;;;;;;;;;5026029;28;20041;-85
2021/01/09 10:29:38;;;;;;;1999.90;999.90;;;;;;;;;;5030452;28;20018;-86
2021/01/09 10:32:03;;;;;;;1999.90;999.90;;;;;;;;;;5021083;28;20021;-87
2021/01/09 10:34:29;;;;;;;1999.90;999.90;;;;;;;;;;5015359;28;20022;-86
2021/01/09 10:36:54;;;;;;;1999.90;999.90;;;;;;;;;;5013050;28;20022;-87
2021/01/09 10:39:19;;;;;;;1999.90;999.90;;;;;;;;;;5021141;28;20028;-89
2021/01/09 10:41:45;;;;;;;1999.90;999.90;;;;;;;;;;5017980;28;20536;-88
2021/01/09 10:44:10;;;;;;;1999.90;999.90;;;;;;;;;;5026968;28;20114;-88
2021/01/09 10:46:36;;;;;;;1999.90;999.90;;;;;;;;;;5019297;28;20057;-90
2021/01/09 10:49:01;;;;;;;1999.90;999.90;;;;;;;;;;5020344;28;20080;-82
2021/01/09 10:51:29;;;;;;;1999.90;999.90;;;;;;;;;;5023204;28;20060;-87
2021/01/09 10:53:54;;;;;;;1999.90;999.90;;;;;;;;;;5018989;28;20033;-85
2021/01/09 10:56:19;;;;;;;1999.90;999.90;;;;;;;;;;5028135;28;20028;-85
2021/01/09 10:58:45;;;;;;;1999.90;999.90;;;;;;;;;;5027188;28;20014;-83
2021/01/09 11:01:11;;;;;;;1999.90;999.90;;;;;;;;;;5021181;28;20076;-83
2021/01/09 11:03:40;;;;;;;1999.90;999.90;;;;;;;;;;5022368;28;20397;-83
2021/01/09 11:06:05;;;;;;;1999.90;999.90;;;;;;;;;;5016463;28;20038;-84
2021/01/09 11:08:31;;;;;;;1999.90;999.90;;;;;;;;;;5018633;28;20660;-84
2021/01/09 11:10:56;;;;;;;1999.90;999.90;;;;;;;;;;5018426;28;20034;-84
2021/01/09 11:13:22;;;;;;;1999.90;999.90;;;;;;;;;;5021870;28;20076;-83
2021/01/09 11:15:48;;;;;;;1999.90;999.90;;;;;;;;;;5022921;28;20080;-85
2021/01/09 11:18:13;;;;;;;1999.90;999.90;;;;;;;;;;5017956;28;20060;-86
2021/01/09 11:20:39;;;;;;;1999.90;999.90;;;;;;;;;;5023263;28;20033;-85
2021/01/09 11:23:05;;;;;;;1999.90;999.90;;;;;;;;;;5022616;28;20024;-83
2021/01/09 11:25:31;;;;;;;1999.90;999.90;;;;;;;;;;5021374;28;20049;-82
2021/01/09 11:27:56;;;;;;;1999.90;999.90;;;;;;;;;;5023207;28;20093;-79
2021/01/09 11:30:21;;;;;;;1999.90;999.90;;;;;;;;;;5017576;28;20026;-81
2021/01/09 11:32:47;;;;;;;1999.90;999.90;;;;;;;;;;5017049;28;20679;-78
2021/01/09 11:35:12;;;;;;;1999.90;999.90;;;;;;;;;;5018753;28;20030;-86
2021/01/09 11:37:38;;;;;;;1999.90;999.90;;;;;;;;;;5017509;28;20026;-84
2021/01/09 11:40:04;;;;;;;1999.90;999.90;;;;;;;;;;5018877;28;20513;-82
2021/01/09 11:42:29;;;;;;;1999.90;999.90;;;;;;;;;;5020905;28;20032;-81
2021/01/09 11:44:56;;;;;;;1999.90;999.90;;;;;;;;;;5021318;28;20046;-81
2021/01/09 11:47:21;;;;;;;1999.90;999.90;;;;;;;;;;5020543;28;20025;-82
2021/01/09 11:49:47;;;;;;;1999.90;999.90;;;;;;;;;;5017904;28;20356;-82
2021/01/09 11:52:12;;;;;;;1999.90;999.90;;;;;;;;;;5018335;28;20039;-82
2021/01/09 11:54:38;;;;;;;1999.90;999.90;;;;;;;;;;5019388;28;20039;-81
2021/01/09 11:57:03;;;;;;;1999.90;999.90;;;;;;;;;;5016220;28;20030;-82
2021/01/09 11:59:28;;;;;;;1999.90;999.90;;;;;;;;;;5022201;28;20018;-82
2021/01/09 12:01:54;;;;;;;1999.90;999.90;;;;;;;;;;5025470;28;20615;-83
2021/01/09 12:04:19;;;;;;;1999.90;999.90;;;;;;;;;;5020218;28;20116;-82
2021/01/09 12:06:45;;;;;;;1999.90;999.90;;;;;;;;;;5023101;28;20053;-82
2021/01/09 12:09:10;;;;;;;1999.90;999.90;;;;;;;;;;5016009;28;20038;-82
2021/01/09 12:11:35;;;;;;;1999.90;999.90;;;;;;;;;;5017221;28;20026;-82
2021/01/09 12:14:01;;;;;;;1999.90;999.90;;;;;;;;;;5018087;28;20132;-82
2021/01/09 12:16:29;;;;;;;1999.90;999.90;;;;;;;;;;5020907;28;20017;-82
2021/01/09 12:18:55;;;;;;;1999.90;999.90;;;;;;;;;;5021816;28;20051;-83
2021/01/09 12:21:22;;;;;;;1999.90;999.90;;;;;;;;;;5022610;28;20474;-83
2021/01/09 12:23:47;;;;;;;1999.90;999.90;;;;;;;;;;5017726;28;20033;-82
2021/01/09 12:26:18;;;;;;;1999.90;999.90;;;;;;;;;;5020657;28;20733;-77
2021/01/09 12:28:44;;;;;;;1999.90;999.90;;;;;;;;;;5020150;28;20080;-77
2021/01/09 12:31:10;;;;;;;1999.90;999.90;;;;;;;;;;5018083;28;20034;-81
2021/01/09 12:33:35;;;;;;;1999.90;999.90;;;;;;;;;;5022171;28;20029;-83
2021/01/09 12:36:01;;;;;;;1999.90;999.90;;;;;;;;;;5026600;28;20040;-83
2021/01/09 12:38:26;;;;;;;1999.90;999.90;;;;;;;;;;5024773;28;20080;-83
2021/01/09 12:40:52;;;;;;;1999.90;999.90;;;;;;;;;;5023321;28;20022;-83
2021/01/09 12:43:17;;;;;;;1999.90;999.90;;;;;;;;;;5022129;28;20029;-83
2021/01/09 12:45:43;;;;;;;1999.90;999.90;;;;;;;;;;5020884;28;20033;-80
2021/01/09 12:48:08;;;;;;;1999.90;999.90;;;;;;;;;;5024297;28;20033;-81
2021/01/09 12:50:40;;;;;;;1999.90;999.90;;;;;;;;;;5021596;28;20064;-83
2021/01/09 12:53:06;;;;;;;1999.90;999.90;;;;;;;;;;5022774;28;20021;-82
2021/01/09 12:55:32;;;;;;;1999.90;999.90;;;;;;;;;;5020518;28;20080;-82
2021/01/09 12:57:57;;;;;;;1999.90;999.90;;;;;;;;;;5024345;28;20061;-82
2021/01/09 13:00:23;;;;;;;1999.90;999.90;;;;;;;;;;5025084;28;20134;-82
2021/01/09 13:02:48;;;;;;;1999.90;999.90;;;;;;;;;;5015982;28;20029;-82
2021/01/09 13:05:13;;;;;;;1999.90;999.90;;;;;;;;;;5023079;28;20060;-83
2021/01/09 13:07:39;;;;;;;1999.90;999.90;;;;;;;;;;5018551;28;20041;-82
2021/01/09 13:10:05;;;;;;;1999.90;999.90;;;;;;;;;;5019123;28;20025;-83
2021/01/09 13:12:30;;;;;;;1999.90;999.90;;;;;;;;;;5024213;28;20583;-82
2021/01/09 13:14:56;;;;;;;1999.90;999.90;;;;;;;;;;5019669;28;20022;-82
2021/01/09 13:17:21;;;;;;;1999.90;999.90;;;;;;;;;;5021260;28;20474;-82
2021/01/09 13:19:48;;;;;;;1999.90;999.90;;;;;;;;;;5020247;28;20064;-83
2021/01/09 13:22:13;;;;;;;1999.90;999.90;;;;;;;;;;5014590;28;20022;-78
2021/01/09 13:24:39;;;;;;;1999.90;999.90;;;;;;;;;;5016347;28;20032;-83
2021/01/09 13:27:04;;;;;;;1999.90;999.90;;;;;;;;;;5023534;28;20026;-83
2021/01/09 13:29:30;;;;;;;1999.90;999.90;;;;;;;;;;5025419;28;20087;-83
2021/01/09 13:31:57;;;;;;;1999.90;999.90;;;;;;;;;;5022952;28;20025;-83
2021/01/09 13:34:23;;;;;;;1999.90;999.90;;;;;;;;;;5021437;28;20041;-83
2021/01/09 13:36:48;;;;;;;1999.90;999.90;;;;;;;;;;5026982;28;20368;-83
2021/01/09 13:39:14;;;;;;;1999.90;999.90;;;;;;;;;;5018716;28;20087;-83